createdAt,value
2022-12-31T00:01:20.531Z,99818.69
2022-12-31T00:03:49.206Z,99821.00
2022-12-31T00:06:20.339Z,99823.19
2022-12-31T00:08:49.237Z,99821.44
2022-12-31T00:11:16.867Z,99819.41
2022-12-31T00:13:49.807Z,99824.75
2022-12-31T00:16:18.007Z,99822.09
2022-12-31T00:18:48.916Z,99826.66
2022-12-31T00:21:17.475Z,99814.63
2022-12-31T00:23:46.451Z,99813.31
2022-12-31T00:26:16.057Z,99812.84
2022-12-31T00:28:44.488Z,99806.50
2022-12-31T00:31:17.576Z,99807.03
2022-12-31T00:33:46.125Z,99804.72
2022-12-31T00:36:15.486Z,99808.06
2022-12-31T00:38:46.442Z,99811.75
2022-12-31T00:41:15.119Z,99830.13
2022-12-31T00:43:43.139Z,99824.81
2022-12-31T00:46:11.549Z,99830.38
2022-12-31T00:48:41.656Z,99830.44
2022-12-31T00:51:14.950Z,99821.53
2022-12-31T00:53:43.735Z,99834.63
2022-12-31T00:56:12.967Z,99821.59
2022-12-31T00:58:42.138Z,99828.09
2022-12-31T01:01:10.745Z,99834.78
2022-12-31T01:03:40.483Z,99842.00
2022-12-31T01:06:09.055Z,99834.63
2022-12-31T01:08:37.753Z,99828.75
2022-12-31T01:11:06.008Z,99819.84
2022-12-31T01:13:34.544Z,99819.03
2022-12-31T01:16:08.233Z,99817.38
2022-12-31T01:18:37.183Z,99814.50
2022-12-31T01:21:09.430Z,99816.50
2022-12-31T01:23:37.838Z,99813.66
2022-12-31T01:26:07.976Z,99806.47
2022-12-31T01:28:36.876Z,99804.28
2022-12-31T01:31:06.110Z,99805.41
2022-12-31T01:33:35.239Z,99822.19
2022-12-31T01:36:06.237Z,99826.38
2022-12-31T01:38:35.081Z,99827.09
2022-12-31T01:41:03.592Z,99832.78
2022-12-31T01:43:47.884Z,99838.81
2022-12-31T01:46:23.767Z,99836.16
2022-12-31T01:48:56.072Z,99853.72
2022-12-31T01:51:27.516Z,99866.47
2022-12-31T01:53:55.924Z,99864.09
2022-12-31T01:56:24.404Z,99867.63
2022-12-31T01:58:55.414Z,99870.13
2022-12-31T02:01:27.998Z,99866.78
2022-12-31T02:03:57.086Z,99856.09
2022-12-31T02:06:31.247Z,99864.47
2022-12-31T02:08:59.450Z,99865.28
2022-12-31T02:11:29.480Z,99869.66
2022-12-31T02:14:00.792Z,99865.78
2022-12-31T02:16:35.199Z,99858.91
2022-12-31T02:19:27.506Z,99853.06
2022-12-31T02:22:07.610Z,99869.63
2022-12-31T02:24:58.055Z,99863.25
2022-12-31T02:27:40.983Z,99861.94
2022-12-31T02:30:15.072Z,99866.59
2022-12-31T02:32:57.147Z,99864.25
2022-12-31T02:35:29.614Z,99861.06
2022-12-31T02:38:02.878Z,99872.97
2022-12-31T02:40:34.988Z,99888.91
2022-12-31T02:43:03.022Z,99877.50
2022-12-31T02:45:37.806Z,99892.59
2022-12-31T02:48:21.698Z,99883.03
2022-12-31T02:50:58.157Z,99895.75
2022-12-31T02:53:40.344Z,99889.88
2022-12-31T02:56:15.086Z,99886.56
2022-12-31T02:58:52.977Z,99880.38
2022-12-31T03:01:27.943Z,99876.81
2022-12-31T03:03:55.784Z,99878.69
2022-12-31T03:06:24.170Z,99888.41
2022-12-31T03:08:52.809Z,99883.72
2022-12-31T03:11:26.706Z,99890.91
2022-12-31T03:13:54.337Z,99889.09
2022-12-31T03:16:23.712Z,99886.72
2022-12-31T03:18:51.377Z,99885.56
2022-12-31T03:21:19.350Z,99891.56
2022-12-31T03:23:46.927Z,99892.09
2022-12-31T03:26:14.826Z,99902.66
2022-12-31T03:28:43.729Z,99912.88
2022-12-31T03:31:12.977Z,99914.03
2022-12-31T03:33:42.652Z,99915.41
2022-12-31T03:36:12.737Z,99913.19
2022-12-31T03:38:40.987Z,99926.13
2022-12-31T03:41:10.627Z,99935.16
2022-12-31T03:43:38.403Z,99931.63
2022-12-31T03:46:06.220Z,99929.28
2022-12-31T03:48:34.257Z,99923.75
2022-12-31T03:51:03.352Z,99932.97
2022-12-31T03:53:31.748Z,99930.31
2022-12-31T03:55:59.395Z,99930.47
2022-12-31T03:58:27.278Z,99911.03
2022-12-31T04:00:54.869Z,99908.34
2022-12-31T04:03:22.867Z,99900.81
2022-12-31T04:05:54.394Z,99900.97
2022-12-31T04:08:23.859Z,99900.63
2022-12-31T04:10:51.417Z,99907.00
2022-12-31T04:13:19.562Z,99903.81
2022-12-31T04:15:50.169Z,99890.91
2022-12-31T04:18:18.149Z,99890.06
2022-12-31T04:20:45.579Z,99883.00
2022-12-31T04:23:14.084Z,99882.00
2022-12-31T04:25:43.159Z,99870.59
2022-12-31T04:28:11.321Z,99876.44
2022-12-31T04:30:38.893Z,99876.78
2022-12-31T04:33:06.912Z,99899.59
2022-12-31T04:35:34.528Z,99903.13
2022-12-31T04:38:02.717Z,99907.63
2022-12-31T04:40:30.249Z,99895.72
2022-12-31T04:42:59.697Z,99911.81
2022-12-31T04:45:27.503Z,99905.44
2022-12-31T04:47:55.456Z,99910.63
2022-12-31T04:50:23.055Z,99901.03
2022-12-31T04:52:51.105Z,99910.13
2022-12-31T04:55:18.815Z,99914.31
2022-12-31T04:57:46.907Z,99916.47
2022-12-31T05:00:16.600Z,99900.06
2022-12-31T05:02:44.985Z,99908.72
2022-12-31T05:05:12.770Z,99906.84
2022-12-31T05:07:40.741Z,99896.97
2022-12-31T05:10:09.948Z,99898.63
2022-12-31T05:12:38.017Z,99889.34
2022-12-31T05:15:06.981Z,99879.56
2022-12-31T05:17:36.344Z,99891.50
2022-12-31T05:20:04.503Z,99895.41
2022-12-31T05:22:32.867Z,99894.84
2022-12-31T05:25:00.912Z,99895.72
2022-12-31T05:27:32.691Z,99906.78
2022-12-31T05:30:00.376Z,99902.66
2022-12-31T05:32:28.585Z,99902.94
2022-12-31T05:34:58.094Z,99913.34
2022-12-31T05:37:26.531Z,99914.34
2022-12-31T05:39:56.985Z,99902.97
2022-12-31T05:42:25.006Z,99903.09
2022-12-31T05:44:52.652Z,99891.16
2022-12-31T05:47:21.494Z,99890.69
2022-12-31T05:49:49.303Z,99902.78
2022-12-31T05:52:19.298Z,99897.75
2022-12-31T05:54:47.149Z,99902.09
2022-12-31T05:57:15.273Z,99899.09
2022-12-31T05:59:42.815Z,99899.75
2022-12-31T06:02:10.964Z,99901.41
2022-12-31T06:04:38.569Z,99911.56
2022-12-31T06:07:06.653Z,99909.31
2022-12-31T06:09:35.785Z,99905.28
2022-12-31T06:12:04.339Z,99896.13
2022-12-31T06:14:32.334Z,99900.53
2022-12-31T06:17:00.214Z,99904.31
2022-12-31T06:19:28.214Z,99912.13
2022-12-31T06:21:56.255Z,99921.16
2022-12-31T06:24:23.880Z,99922.00
2022-12-31T06:26:53.358Z,99918.34
2022-12-31T06:29:21.021Z,99938.19
2022-12-31T06:31:49.292Z,99924.00
2022-12-31T06:34:16.971Z,99927.00
2022-12-31T06:36:45.139Z,99928.69
2022-12-31T06:39:12.614Z,99927.69
2022-12-31T06:41:40.643Z,99924.47
2022-12-31T06:44:09.793Z,99923.81
2022-12-31T06:46:39.643Z,99913.81
2022-12-31T06:49:07.396Z,99916.63
2022-12-31T06:51:35.508Z,99922.66
2022-12-31T06:54:03.029Z,99917.69
2022-12-31T06:56:34.673Z,99928.25
2022-12-31T06:59:03.718Z,99937.09
2022-12-31T07:01:50.333Z,99943.53
2022-12-31T07:04:55.700Z,99944.13
2022-12-31T07:07:30.153Z,99923.13
2022-12-31T07:10:06.752Z,99940.16
2022-12-31T07:12:46.533Z,99946.47
2022-12-31T07:15:19.929Z,99948.78
2022-12-31T07:18:01.145Z,99944.22
2022-12-31T07:20:29.343Z,99943.66
2022-12-31T07:22:57.941Z,99952.50
2022-12-31T07:25:26.025Z,99957.78
2022-12-31T07:28:09.625Z,99956.50
2022-12-31T07:30:46.503Z,99962.22
2022-12-31T07:33:40.030Z,99967.19
2022-12-31T07:36:20.233Z,99965.88
2022-12-31T07:38:53.866Z,99951.41
2022-12-31T07:41:38.985Z,99948.09
2022-12-31T07:44:16.184Z,99948.69
2022-12-31T07:46:54.197Z,99955.59
2022-12-31T07:49:25.603Z,99959.25
2022-12-31T07:51:54.139Z,99969.47
2022-12-31T07:54:22.375Z,99958.06
2022-12-31T07:56:51.321Z,99953.28
2022-12-31T07:59:33.609Z,99972.97
2022-12-31T08:02:07.033Z,99976.63
2022-12-31T08:04:49.141Z,99976.50
2022-12-31T08:07:29.999Z,99985.66
2022-12-31T08:10:05.677Z,99974.16
2022-12-31T08:12:35.654Z,99980.81
2022-12-31T08:15:11.760Z,99981.53
2022-12-31T08:17:39.620Z,99973.47
2022-12-31T08:20:13.615Z,99965.53
2022-12-31T08:23:11.237Z,99965.84
2022-12-31T08:25:57.162Z,99974.19
2022-12-31T08:28:36.351Z,99983.97
2022-12-31T08:31:09.247Z,99983.53
2022-12-31T08:33:44.982Z,99979.44
2022-12-31T08:36:24.110Z,99971.53
2022-12-31T08:38:58.532Z,99978.31
2022-12-31T08:41:32.087Z,99979.53
2022-12-31T08:44:09.331Z,99979.03
2022-12-31T08:46:44.070Z,99961.38
2022-12-31T08:49:12.482Z,99955.47
2022-12-31T08:51:42.850Z,99986.25
2022-12-31T08:54:11.838Z,99954.41
2022-12-31T08:56:50.726Z,99936.44
2022-12-31T08:59:26.808Z,99952.75
2022-12-31T09:02:19.194Z,99949.31
2022-12-31T09:04:58.251Z,99941.66
2022-12-31T09:07:35.558Z,99945.56
2022-12-31T09:10:14.749Z,99951.56
2022-12-31T09:12:50.111Z,99959.28
2022-12-31T09:15:25.313Z,99954.56
2022-12-31T09:17:54.016Z,99960.81
2022-12-31T09:20:25.244Z,99954.78
2022-12-31T09:22:56.989Z,99958.13
2022-12-31T09:25:26.432Z,99954.91
2022-12-31T09:28:06.894Z,99955.56
2022-12-31T09:30:42.622Z,99969.41
2022-12-31T09:33:16.682Z,99962.69
2022-12-31T09:35:52.630Z,99955.25
2022-12-31T09:38:28.183Z,99956.56
2022-12-31T09:41:14.437Z,99962.81
2022-12-31T09:44:44.121Z,99955.72
2022-12-31T09:47:50.992Z,99947.25
2022-12-31T09:50:54.177Z,99952.06
2022-12-31T09:53:48.813Z,99957.41
2022-12-31T09:56:25.350Z,99961.75
2022-12-31T09:59:01.874Z,99957.16
2022-12-31T10:01:42.934Z,99957.13
2022-12-31T10:04:33.862Z,99932.00
2022-12-31T10:07:10.969Z,99952.88
2022-12-31T10:09:54.596Z,99939.78
2022-12-31T10:12:44.633Z,99940.97
2022-12-31T10:15:35.386Z,99938.88
2022-12-31T10:18:18.564Z,99934.50
2022-12-31T10:21:05.259Z,99936.19
2022-12-31T10:24:00.151Z,99938.31
2022-12-31T10:26:44.613Z,99946.94
2022-12-31T10:29:25.525Z,99941.78
2022-12-31T10:32:08.033Z,99914.28
2022-12-31T10:34:52.771Z,99929.72
2022-12-31T10:37:24.637Z,99926.19
2022-12-31T10:40:07.396Z,99938.66
2022-12-31T10:43:07.914Z,99939.91
2022-12-31T10:46:22.817Z,99945.31
2022-12-31T10:49:26.125Z,99944.53
2022-12-31T10:52:29.407Z,99938.97
2022-12-31T10:55:26.016Z,99939.75
2022-12-31T10:58:33.015Z,99925.38
2022-12-31T11:01:08.861Z,99925.66
2022-12-31T11:04:01.603Z,99934.63
2022-12-31T11:07:10.396Z,99943.06
2022-12-31T11:10:10.967Z,99934.34
2022-12-31T11:13:10.854Z,99932.09
2022-12-31T11:15:54.574Z,99938.59
2022-12-31T11:18:30.460Z,99912.34
2022-12-31T11:21:16.953Z,99906.50
2022-12-31T11:23:53.762Z,99905.28
2022-12-31T11:26:32.156Z,99914.66
2022-12-31T11:29:09.500Z,99906.53
2022-12-31T11:31:53.223Z,99905.94
2022-12-31T11:34:43.129Z,99908.41
2022-12-31T11:37:27.840Z,99905.09
2022-12-31T11:40:02.365Z,99896.56
2022-12-31T11:42:43.523Z,99899.91
2022-12-31T11:45:18.367Z,99895.13
2022-12-31T11:50:55.337Z,99889.03
2022-12-31T11:53:39.981Z,99882.56
2022-12-31T11:56:17.032Z,99895.50
2022-12-31T11:58:48.322Z,99892.78
2022-12-31T12:01:22.591Z,99890.25
2022-12-31T12:03:52.160Z,99894.63
2022-12-31T12:06:25.600Z,99892.53
2022-12-31T12:08:59.367Z,99908.81
2022-12-31T12:11:31.137Z,99905.91
2022-12-31T12:13:59.107Z,99896.31
2022-12-31T12:16:28.429Z,99901.50
2022-12-31T12:19:05.852Z,99887.31
2022-12-31T12:21:34.567Z,99903.22
2022-12-31T12:24:04.719Z,99905.72
2022-12-31T12:26:36.256Z,99901.97
2022-12-31T12:29:12.276Z,99913.59
2022-12-31T12:31:40.254Z,99920.28
2022-12-31T12:34:24.006Z,99926.16
2022-12-31T12:36:51.728Z,99925.72
2022-12-31T12:39:24.875Z,99929.69
2022-12-31T12:42:07.426Z,99924.47
2022-12-31T12:44:35.571Z,99931.38
2022-12-31T12:47:05.638Z,99935.97
2022-12-31T12:49:40.101Z,99924.50
2022-12-31T12:52:32.056Z,99931.75
2022-12-31T12:55:14.516Z,99931.59
2022-12-31T12:57:49.386Z,99923.84
2022-12-31T13:00:20.013Z,99929.47
2022-12-31T13:03:16.951Z,99932.84
2022-12-31T13:05:58.244Z,99937.00
2022-12-31T13:08:37.465Z,99937.41
2022-12-31T13:11:22.012Z,99937.41
2022-12-31T13:13:58.073Z,99936.59
2022-12-31T13:16:37.082Z,99933.69
2022-12-31T13:19:13.447Z,99932.84
2022-12-31T13:21:48.821Z,99924.09
2022-12-31T13:24:27.291Z,99929.09
2022-12-31T13:27:02.939Z,99930.97
2022-12-31T13:29:35.145Z,99947.00
2022-12-31T13:32:07.064Z,99942.44
2022-12-31T13:34:40.359Z,99939.31
2022-12-31T13:37:20.163Z,99942.63
2022-12-31T13:39:52.847Z,99944.09
2022-12-31T13:42:27.248Z,99951.19
2022-12-31T13:44:59.707Z,99953.47
2022-12-31T13:47:33.911Z,99960.34
2022-12-31T13:50:14.132Z,99953.88
2022-12-31T13:52:49.445Z,99957.00
2022-12-31T13:55:23.036Z,99970.34
2022-12-31T13:57:54.975Z,99969.13
2022-12-31T14:00:25.302Z,99967.22
2022-12-31T14:03:02.727Z,99962.84
2022-12-31T14:05:35.333Z,99965.16
2022-12-31T14:08:06.595Z,99968.69
2022-12-31T14:10:54.641Z,99982.88
2022-12-31T14:13:36.381Z,99979.94
2022-12-31T14:16:11.983Z,99986.19
2022-12-31T14:18:46.757Z,99975.94
2022-12-31T14:21:22.893Z,99980.94
2022-12-31T14:24:03.875Z,99985.09
2022-12-31T14:26:35.765Z,99984.94
2022-12-31T14:29:15.137Z,99989.13
2022-12-31T14:32:07.618Z,99984.31
2022-12-31T14:34:45.629Z,99991.81
2022-12-31T14:37:20.166Z,99979.91
2022-12-31T14:40:00.570Z,99989.53
2022-12-31T14:42:36.573Z,99993.47
2022-12-31T14:45:25.249Z,99979.72
2022-12-31T14:47:56.563Z,99981.19
2022-12-31T14:50:26.848Z,99983.72
2022-12-31T14:52:56.588Z,100003.06
2022-12-31T14:55:28.786Z,99990.16
2022-12-31T15:00:54.278Z,99995.38
2022-12-31T15:03:32.967Z,100000.16
2022-12-31T15:06:10.599Z,99988.09
2022-12-31T15:08:53.503Z,99984.13
2022-12-31T15:11:37.916Z,99992.03
2022-12-31T15:14:37.488Z,99994.72
2022-12-31T15:17:20.809Z,99989.13
2022-12-31T15:20:38.786Z,99981.19
2022-12-31T15:23:14.706Z,99979.50
2022-12-31T15:25:48.510Z,99973.28
2022-12-31T15:28:36.402Z,99987.44
2022-12-31T15:31:09.968Z,99984.50
2022-12-31T15:33:52.909Z,99992.22
2022-12-31T15:36:22.460Z,99988.06
2022-12-31T15:38:51.267Z,99997.47
2022-12-31T15:41:28.540Z,99992.84
2022-12-31T15:44:02.129Z,100007.88
2022-12-31T15:46:33.342Z,100014.13
2022-12-31T15:49:06.816Z,100012.25
2022-12-31T15:51:44.716Z,100009.53
2022-12-31T15:54:23.465Z,100017.69
2022-12-31T15:56:53.687Z,100020.59
2022-12-31T15:59:23.273Z,100034.56
2022-12-31T16:01:51.053Z,100032.28
2022-12-31T16:04:22.630Z,100032.88
2022-12-31T16:06:51.746Z,100039.13
2022-12-31T16:09:23.772Z,100038.50
2022-12-31T16:11:52.222Z,100039.16
2022-12-31T16:14:25.581Z,100050.41
2022-12-31T16:16:55.598Z,100051.44
2022-12-31T16:19:34.986Z,100056.25
2022-12-31T16:22:08.238Z,100055.81
2022-12-31T16:24:48.869Z,100059.81
2022-12-31T16:27:26.173Z,100067.09
2022-12-31T16:30:01.164Z,100061.22
2022-12-31T16:32:35.285Z,100057.06
2022-12-31T16:35:08.388Z,100063.34
2022-12-31T16:37:39.715Z,100062.28
2022-12-31T16:40:20.312Z,100059.78
2022-12-31T16:42:48.231Z,100054.38
2022-12-31T16:45:32.520Z,100071.03
2022-12-31T16:48:12.803Z,100064.56
2022-12-31T16:50:46.734Z,100062.06
2022-12-31T16:53:18.650Z,100058.72
2022-12-31T16:55:54.434Z,100063.31
2022-12-31T16:58:27.151Z,100066.88
2022-12-31T17:01:07.116Z,100069.16
2022-12-31T17:03:44.350Z,100064.16
2022-12-31T17:06:15.268Z,100073.31
2022-12-31T17:08:44.405Z,100070.00
2022-12-31T17:11:27.530Z,100074.59
2022-12-31T17:13:57.686Z,100076.47
2022-12-31T17:16:27.889Z,100073.53
2022-12-31T17:18:55.761Z,100084.16
2022-12-31T17:21:27.427Z,100091.66
2022-12-31T17:23:56.600Z,100089.78
2022-12-31T17:26:27.916Z,100082.28
2022-12-31T17:28:57.861Z,100088.97
2022-12-31T17:31:33.908Z,100084.19
2022-12-31T17:34:21.183Z,100094.19
2022-12-31T17:36:57.870Z,100097.53
2022-12-31T17:39:26.880Z,100090.44
2022-12-31T17:41:58.023Z,100100.44
2022-12-31T17:44:27.918Z,100097.91
2022-12-31T17:46:58.267Z,100101.47
2022-12-31T17:49:30.965Z,100111.69
2022-12-31T17:51:59.247Z,100126.94
2022-12-31T17:54:26.877Z,100118.81
2022-12-31T17:56:54.966Z,100122.97
2022-12-31T17:59:25.901Z,100116.09
2022-12-31T18:01:54.456Z,100120.88
2022-12-31T18:04:24.060Z,100127.78
2022-12-31T18:06:52.567Z,100126.97
2022-12-31T18:09:20.407Z,100120.47
2022-12-31T18:11:49.152Z,100122.53
2022-12-31T18:14:17.448Z,100122.75
2022-12-31T18:16:45.679Z,100129.00
2022-12-31T18:19:37.917Z,100132.56
2022-12-31T18:22:05.627Z,100125.69
2022-12-31T18:24:34.032Z,100135.47
2022-12-31T18:27:02.245Z,100132.13
2022-12-31T18:29:30.115Z,100119.81
2022-12-31T18:31:58.524Z,100122.75
2022-12-31T18:34:26.509Z,100117.94
2022-12-31T18:36:54.645Z,100111.25
2022-12-31T18:39:24.201Z,100119.34
2022-12-31T18:41:52.876Z,100125.81
2022-12-31T18:44:20.999Z,100119.94
2022-12-31T18:46:49.556Z,100119.72
2022-12-31T18:49:17.439Z,100120.75
2022-12-31T18:51:45.736Z,100132.63
2022-12-31T18:54:14.613Z,100115.19
2022-12-31T18:56:48.315Z,100119.38
2022-12-31T18:59:18.626Z,100111.88
2022-12-31T19:01:47.482Z,100118.34
2022-12-31T19:04:22.844Z,100116.28
2022-12-31T19:06:55.189Z,100116.69
2022-12-31T19:09:44.643Z,100101.91
2022-12-31T19:12:14.735Z,100117.34
2022-12-31T19:14:42.466Z,100109.00
2022-12-31T19:19:36.668Z,100115.66
2022-12-31T19:22:04.639Z,100114.03
2022-12-31T19:24:32.265Z,100119.22
2022-12-31T19:27:01.173Z,100113.78
2022-12-31T19:29:30.282Z,100113.38
2022-12-31T19:31:58.401Z,100108.38
2022-12-31T19:34:26.038Z,100108.38
2022-12-31T19:36:54.170Z,100101.50
2022-12-31T19:39:22.484Z,100103.16
2022-12-31T19:41:58.382Z,100110.47
2022-12-31T19:44:27.035Z,100108.78
2022-12-31T19:46:56.634Z,100118.00
2022-12-31T19:49:24.691Z,100107.75
2022-12-31T19:51:53.071Z,100111.50
2022-12-31T19:54:20.752Z,100111.31
2022-12-31T19:56:48.898Z,100105.88
2022-12-31T19:59:16.481Z,100123.81
2022-12-31T20:01:44.737Z,100117.16
2022-12-31T20:04:16.798Z,100122.34
2022-12-31T20:06:45.264Z,100114.84
2022-12-31T20:09:13.321Z,100123.81
2022-12-31T20:11:41.561Z,100115.88
2022-12-31T20:14:09.514Z,100115.66
2022-12-31T20:16:37.644Z,100121.53
2022-12-31T20:19:05.502Z,100116.53
2022-12-31T20:21:35.285Z,100125.50
2022-12-31T20:24:03.085Z,100117.75
2022-12-31T20:26:31.226Z,100124.22
2022-12-31T20:28:58.884Z,100121.31
2022-12-31T20:31:27.029Z,100128.19
2022-12-31T20:33:55.513Z,100126.53
2022-12-31T20:36:23.944Z,100130.69
2022-12-31T20:38:53.159Z,100123.41
2022-12-31T20:41:22.680Z,100125.88
2022-12-31T20:43:51.192Z,100128.38
2022-12-31T20:46:21.091Z,100112.75
2022-12-31T20:48:50.235Z,100115.06
2022-12-31T20:51:19.712Z,100121.09
2022-12-31T20:53:48.725Z,100129.84
2022-12-31T20:56:19.031Z,100120.28
2022-12-31T20:58:46.995Z,100127.78
2022-12-31T21:01:19.335Z,100128.63
2022-12-31T21:04:05.584Z,100126.53
2022-12-31T21:06:35.795Z,100117.16
2022-12-31T21:09:05.346Z,100128.78
2022-12-31T21:11:35.865Z,100120.91
2022-12-31T21:14:03.659Z,100130.47
2022-12-31T21:16:32.037Z,100120.91
2022-12-31T21:18:59.753Z,100125.47
2022-12-31T21:21:28.169Z,100132.97
2022-12-31T21:23:55.833Z,100127.34
2022-12-31T21:26:23.948Z,100131.72
2022-12-31T21:28:53.679Z,100122.97
2022-12-31T21:31:22.556Z,100131.53
2022-12-31T21:33:50.201Z,100122.16
2022-12-31T21:36:18.630Z,100109.63
2022-12-31T21:38:46.361Z,100122.34
2022-12-31T21:41:14.490Z,100121.31
2022-12-31T21:43:42.214Z,100112.75
2022-12-31T21:46:11.859Z,100117.75
2022-12-31T21:48:39.733Z,100111.91
2022-12-31T21:51:10.371Z,100120.44
2022-12-31T21:53:38.143Z,100119.81
2022-12-31T21:56:07.388Z,100124.41
2022-12-31T21:58:35.953Z,100126.25
2022-12-31T22:01:04.999Z,100127.91
2022-12-31T22:03:34.828Z,100121.25
2022-12-31T22:06:05.846Z,100129.38
2022-12-31T22:08:33.466Z,100116.06
2022-12-31T22:11:01.774Z,100114.59
2022-12-31T22:13:29.446Z,100118.34
2022-12-31T22:16:04.290Z,100135.44
2022-12-31T22:18:35.919Z,100125.03
2022-12-31T22:21:10.808Z,100129.41
2022-12-31T22:23:42.909Z,100125.69
2022-12-31T22:26:12.830Z,100130.03
2022-12-31T22:28:42.073Z,100124.66
2022-12-31T22:31:14.449Z,100136.75
2022-12-31T22:33:44.310Z,100128.59
2022-12-31T22:36:14.316Z,100124.19
2022-12-31T22:38:42.396Z,100127.34
2022-12-31T22:41:12.304Z,100118.53
2022-12-31T22:43:43.170Z,100122.06
2022-12-31T22:46:13.510Z,100107.31
2022-12-31T22:48:41.715Z,100107.13
2022-12-31T22:51:12.129Z,100109.84
2022-12-31T22:53:39.893Z,100111.69
2022-12-31T22:56:08.862Z,100122.75
2022-12-31T22:58:37.184Z,100124.25
2022-12-31T23:01:06.253Z,100121.53
2022-12-31T23:03:34.209Z,100122.34
2022-12-31T23:06:02.222Z,100120.50
2022-12-31T23:08:31.349Z,100129.66
2022-12-31T23:11:00.441Z,100122.13
2022-12-31T23:13:30.810Z,100127.16
2022-12-31T23:15:59.129Z,100118.81
2022-12-31T23:18:27.105Z,100119.66
2022-12-31T23:20:55.273Z,100132.38
2022-12-31T23:23:22.835Z,100111.69
2022-12-31T23:25:53.104Z,100121.94
2022-12-31T23:28:22.391Z,100113.59
2022-12-31T23:30:51.742Z,100109.41
2022-12-31T23:33:21.186Z,100107.13
2022-12-31T23:35:49.440Z,100105.88
2022-12-31T23:38:18.476Z,100112.34
2022-12-31T23:40:46.438Z,100110.03
2022-12-31T23:43:21.616Z,100106.31
2022-12-31T23:45:50.579Z,100115.44
2022-12-31T23:48:18.317Z,100132.94
2022-12-31T23:50:53.091Z,100131.28
2022-12-31T23:53:22.373Z,100141.28
2022-12-31T23:55:50.528Z,100140.44
2022-12-31T23:58:20.088Z,100156.13
